Time;durP1;ratioP1;P1;durP2;ratioP2;P2;SDS_P1;SDS_P2;PMS_P1;PMS_P2;Temp;Humidity;BMP_temperature;BMP_pressure;BME280_temperature;BME280_humidity;BME280_pressure;Samples;Min_cycle;Max_cycle;Signal;HPM_P1;HPM_P2
2022/01/30 00:01:18;;;;;;;25.70;4.20;;;;;;;;;;4996226;28;20637;-60
2022/01/30 00:03:44;;;;;;;23.13;4.93;;;;;;;;;;4991979;28;20213;-61
2022/01/30 00:06:09;;;;;;;21.25;4.00;;;;;;;;;;4992385;28;20217;-61
2022/01/30 00:08:34;;;;;;;24.47;4.60;;;;;;;;;;4992724;28;20267;-61
2022/01/30 00:11:07;;;;;;;27.38;4.35;;;;;;;;;;4974687;28;20260;-61
2022/01/30 00:13:33;;;;;;;32.13;4.50;;;;;;;;;;4972974;28;20622;-61
2022/01/30 00:16:04;;;;;;;19.97;3.33;;;;;;;;;;4973520;28;20213;-61
2022/01/30 00:18:50;;;;;;;25.02;4.28;;;;;;;;;;4990212;28;20300;-61
2022/01/30 00:21:32;;;;;;;24.77;4.17;;;;;;;;;;4992613;28;20240;-61
2022/01/30 00:24:04;;;;;;;20.80;3.70;;;;;;;;;;4990997;28;20374;-61
2022/01/30 00:26:32;;;;;;;24.75;3.95;;;;;;;;;;5012024;28;20303;-61
2022/01/30 00:28:57;;;;;;;21.98;4.18;;;;;;;;;;5014685;28;20299;-61
2022/01/30 00:31:24;;;;;;;31.23;4.30;;;;;;;;;;5014914;28;20355;-61
2022/01/30 00:33:49;;;;;;;28.40;4.30;;;;;;;;;;5016116;28;20209;-61
2022/01/30 00:36:15;;;;;;;31.10;4.83;;;;;;;;;;5015722;28;20212;-61
2022/01/30 00:38:40;;;;;;;26.17;4.00;;;;;;;;;;5015205;28;20252;-61
2022/01/30 00:41:05;;;;;;;31.52;4.72;;;;;;;;;;5015633;28;20220;-61
2022/01/30 00:43:30;;;;;;;28.57;4.60;;;;;;;;;;5015808;28;20212;-61
2022/01/30 00:45:56;;;;;;;27.40;4.27;;;;;;;;;;5015213;28;20227;-61
2022/01/30 00:48:21;;;;;;;26.80;4.53;;;;;;;;;;5015377;28;20672;-61
2022/01/30 00:50:46;;;;;;;26.42;4.43;;;;;;;;;;5015685;28;20216;-61
2022/01/30 00:53:12;;;;;;;28.70;4.65;;;;;;;;;;5014317;28;20235;-61
2022/01/30 00:55:37;;;;;;;25.27;3.93;;;;;;;;;;5015850;28;20216;-61
2022/01/30 00:58:02;;;;;;;24.20;4.45;;;;;;;;;;5015017;28;20220;-61
2022/01/30 01:00:28;;;;;;;27.07;4.53;;;;;;;;;;5005667;28;20634;-61
2022/01/30 01:02:53;;;;;;;26.30;4.60;;;;;;;;;;4996093;28;20264;-61
2022/01/30 01:05:18;;;;;;;22.90;4.20;;;;;;;;;;4995217;28;20241;-61
2022/01/30 01:07:46;;;;;;;28.87;4.90;;;;;;;;;;4994781;28;20795;-61
2022/01/30 01:10:34;;;;;;;27.10;4.40;;;;;;;;;;4995443;28;20331;-61
2022/01/30 01:13:16;;;;;;;20.73;4.17;;;;;;;;;;4980786;28;20217;-61
2022/01/30 01:23:46;;;;;;;32.10;4.77;;;;;;;;;;5001059;28;20220;-61
2022/01/30 01:26:11;;;;;;;30.48;4.38;;;;;;;;;;5014734;28;20672;-61
2022/01/30 01:28:36;;;;;;;18.30;3.90;;;;;;;;;;5014258;28;20220;-61
2022/01/30 01:31:02;;;;;;;34.03;5.57;;;;;;;;;;5014569;28;20212;-61
2022/01/30 01:33:36;;;;;;;26.38;4.50;;;;;;;;;;5014941;28;20726;-61
2022/01/30 01:36:01;;;;;;;23.87;3.60;;;;;;;;;;5013661;28;20306;-62
2022/01/30 01:38:27;;;;;;;22.73;4.57;;;;;;;;;;4997186;28;20295;-61
2022/01/30 01:40:54;;;;;;;26.60;4.00;;;;;;;;;;5014323;28;20351;-61
2022/01/30 01:43:19;;;;;;;23.53;4.27;;;;;;;;;;5013372;28;20684;-61
2022/01/30 01:45:46;;;;;;;23.07;3.73;;;;;;;;;;5014839;28;20270;-61
2022/01/30 01:48:14;;;;;;;20.60;3.80;;;;;;;;;;5013431;28;20228;-61
2022/01/30 01:50:39;;;;;;;20.57;3.30;;;;;;;;;;5014764;28;20236;-61
2022/01/30 01:53:06;;;;;;;22.47;2.97;;;;;;;;;;5013951;28;20287;-61
2022/01/30 01:55:31;;;;;;;14.73;2.50;;;;;;;;;;4996536;28;20694;-61
2022/01/30 01:57:56;;;;;;;17.73;2.70;;;;;;;;;;5014499;28;20216;-61
2022/01/30 02:00:21;;;;;;;20.80;3.00;;;;;;;;;;5005992;28;20641;-61
2022/01/30 02:02:47;;;;;;;19.60;2.67;;;;;;;;;;4994212;28;20589;-61
2022/01/30 02:05:12;;;;;;;15.17;2.17;;;;;;;;;;4994300;28;20213;-61
2022/01/30 02:08:13;;;;;;;16.17;2.80;;;;;;;;;;4994449;28;20310;-61
2022/01/30 02:10:40;;;;;;;19.17;3.33;;;;;;;;;;4993527;28;20703;-61
2022/01/30 02:13:32;;;;;;;21.57;2.93;;;;;;;;;;4994212;28;20693;-61
2022/01/30 02:24:08;;;;;;;19.17;2.80;;;;;;;;;;4990265;28;20263;-61
2022/01/30 02:26:35;;;;;;;17.83;3.70;;;;;;;;;;5014019;28;20300;-61
2022/01/30 02:29:00;;;;;;;17.93;3.17;;;;;;;;;;4996051;28;20247;-62
2022/01/30 02:31:25;;;;;;;14.87;2.87;;;;;;;;;;5013124;28;20240;-61
2022/01/30 02:33:51;;;;;;;16.60;2.60;;;;;;;;;;5014052;28;20243;-61
2022/01/30 02:36:17;;;;;;;19.20;2.73;;;;;;;;;;5013552;28;20213;-61
2022/01/30 02:38:42;;;;;;;17.07;2.50;;;;;;;;;;5012293;28;20212;-61
2022/01/30 02:41:07;;;;;;;17.53;2.70;;;;;;;;;;5013283;28;20224;-61
2022/01/30 02:43:38;;;;;;;15.10;2.63;;;;;;;;;;5013700;28;20638;-61
2022/01/30 02:46:23;;;;;;;16.80;2.23;;;;;;;;;;5012324;28;20331;-62
2022/01/30 02:48:53;;;;;;;13.17;1.73;;;;;;;;;;5013548;28;20204;-61
2022/01/30 02:51:21;;;;;;;12.82;2.30;;;;;;;;;;5012431;28;20664;-61
2022/01/30 02:53:55;;;;;;;14.80;2.30;;;;;;;;;;5012210;28;20588;-61
2022/01/30 02:56:21;;;;;;;16.40;2.20;;;;;;;;;;4996915;28;20354;-61
2022/01/30 02:58:46;;;;;;;11.20;2.07;;;;;;;;;;4995425;28;20223;-61
2022/01/30 03:01:11;;;;;;;12.53;2.37;;;;;;;;;;4997508;28;20228;-61
2022/01/30 03:03:37;;;;;;;12.37;2.00;;;;;;;;;;4993826;28;20220;-61
2022/01/30 03:06:02;;;;;;;14.15;2.17;;;;;;;;;;4992379;28;20622;-61
2022/01/30 03:08:27;;;;;;;11.10;1.87;;;;;;;;;;4993209;28;20217;-61
2022/01/30 03:10:52;;;;;;;14.93;1.93;;;;;;;;;;4993680;28;20209;-61
2022/01/30 03:13:18;;;;;;;13.27;2.00;;;;;;;;;;4992650;28;20631;-61
2022/01/30 03:15:43;;;;;;;17.80;2.50;;;;;;;;;;4993352;28;20213;-61
2022/01/30 03:18:08;;;;;;;13.63;2.10;;;;;;;;;;4977464;28;20222;-61
2022/01/30 03:20:33;;;;;;;15.10;2.00;;;;;;;;;;4973236;28;20213;-61
2022/01/30 03:23:01;;;;;;;11.07;1.90;;;;;;;;;;4987096;28;20213;-61
2022/01/30 03:25:26;;;;;;;17.20;2.20;;;;;;;;;;5012345;28;20588;-61
2022/01/30 03:27:53;;;;;;;13.98;2.00;;;;;;;;;;5012199;28;20232;-61
2022/01/30 03:30:25;;;;;;;13.50;2.20;;;;;;;;;;5012297;28;20216;-61
2022/01/30 03:32:51;;;;;;;15.03;2.40;;;;;;;;;;5012842;28;20231;-61
2022/01/30 03:35:16;;;;;;;13.77;2.33;;;;;;;;;;5011421;28;20240;-61
2022/01/30 03:37:41;;;;;;;15.03;2.10;;;;;;;;;;5012823;28;20204;-61
2022/01/30 03:40:07;;;;;;;21.07;2.20;;;;;;;;;;5011958;28;20212;-61
2022/01/30 03:42:32;;;;;;;15.73;2.30;;;;;;;;;;4994571;28;20213;-61
2022/01/30 03:44:57;;;;;;;13.40;2.50;;;;;;;;;;4994988;28;20609;-61
2022/01/30 03:47:24;;;;;;;11.33;1.83;;;;;;;;;;5012046;28;20217;-61
2022/01/30 03:49:50;;;;;;;14.30;2.40;;;;;;;;;;5011654;28;20312;-61
2022/01/30 03:52:16;;;;;;;14.97;2.40;;;;;;;;;;5012328;28;20295;-61
2022/01/30 03:54:41;;;;;;;12.27;2.10;;;;;;;;;;5012041;28;20212;-61
2022/01/30 03:57:07;;;;;;;15.10;2.53;;;;;;;;;;5011688;28;20266;-61
2022/01/30 03:59:32;;;;;;;17.40;2.73;;;;;;;;;;5010754;28;20223;-61
2022/01/30 04:01:57;;;;;;;14.67;2.47;;;;;;;;;;4992572;28;20215;-61
2022/01/30 04:04:23;;;;;;;14.57;2.23;;;;;;;;;;4995493;28;20225;-61
2022/01/30 04:06:48;;;;;;;13.47;2.53;;;;;;;;;;4996762;28;20890;-61
2022/01/30 04:09:14;;;;;;;16.27;2.23;;;;;;;;;;4995863;28;20593;-61
2022/01/30 04:11:39;;;;;;;13.73;2.30;;;;;;;;;;4996565;28;20228;-61
2022/01/30 04:14:05;;;;;;;17.17;2.40;;;;;;;;;;4996582;28;20225;-61
2022/01/30 04:16:30;;;;;;;16.90;2.60;;;;;;;;;;4993729;28;20215;-61
2022/01/30 04:18:57;;;;;;;19.00;2.73;;;;;;;;;;4976987;28;20217;-61
2022/01/30 04:21:23;;;;;;;12.10;2.47;;;;;;;;;;4977140;28;20221;-61
2022/01/30 04:23:48;;;;;;;15.93;2.47;;;;;;;;;;5002520;28;20233;-61
2022/01/30 04:26:13;;;;;;;16.90;2.78;;;;;;;;;;5015763;28;21079;-61
2022/01/30 04:28:39;;;;;;;13.60;2.10;;;;;;;;;;5016349;28;20212;-61
2022/01/30 04:31:04;;;;;;;10.57;2.17;;;;;;;;;;5014724;28;20675;-62
2022/01/30 04:33:29;;;;;;;22.50;2.80;;;;;;;;;;5016161;28;20212;-61
2022/01/30 04:35:55;;;;;;;16.37;2.60;;;;;;;;;;4998488;28;20236;-61
2022/01/30 04:38:27;;;;;;;12.83;2.10;;;;;;;;;;5014856;28;20231;-61
2022/01/30 04:41:18;;;;;;;17.57;2.90;;;;;;;;;;5015751;28;20217;-61
2022/01/30 04:55:17;;;;;;;19.47;3.23;;;;;;;;;;5015755;28;20213;-62
2022/01/30 05:00:08;;;;;;;19.20;2.87;;;;;;;;;;5011552;28;20288;-61
2022/01/30 05:07:40;;;;;;;18.83;2.70;;;;;;;;;;4995167;28;20231;-61
2022/01/30 05:10:06;;;;;;;19.88;2.88;;;;;;;;;;4995396;28;20225;-62
2022/01/30 05:12:41;;;;;;;15.10;2.63;;;;;;;;;;4977818;28;20209;-62
2022/01/30 05:15:06;;;;;;;21.03;3.10;;;;;;;;;;4993962;28;20220;-62
2022/01/30 05:17:32;;;;;;;18.57;2.93;;;;;;;;;;4984989;28;20214;-62
2022/01/30 05:19:57;;;;;;;18.50;3.67;;;;;;;;;;4975601;28;20582;-61
2022/01/30 05:22:23;;;;;;;18.43;3.43;;;;;;;;;;4979270;28;20689;-62
2022/01/30 05:24:48;;;;;;;19.27;3.53;;;;;;;;;;5015219;28;20224;-61
2022/01/30 05:27:13;;;;;;;19.23;3.03;;;;;;;;;;5013437;28;20688;-62
2022/01/30 05:29:39;;;;;;;17.92;2.70;;;;;;;;;;5015231;28;20698;-62
2022/01/30 05:32:04;;;;;;;19.63;3.03;;;;;;;;;;5014358;28;20219;-62
2022/01/30 05:34:30;;;;;;;15.20;2.90;;;;;;;;;;5014460;28;20208;-62
2022/01/30 05:36:56;;;;;;;22.90;2.90;;;;;;;;;;5015355;28;20303;-61
2022/01/30 05:39:21;;;;;;;19.87;2.90;;;;;;;;;;5014455;28;20622;-61
2022/01/30 05:41:46;;;;;;;18.47;2.97;;;;;;;;;;5013720;28;20204;-61
2022/01/30 05:44:17;;;;;;;23.23;3.30;;;;;;;;;;4997009;28;20221;-62
2022/01/30 05:46:48;;;;;;;25.53;3.57;;;;;;;;;;5014574;28;20251;-62
2022/01/30 05:49:14;;;;;;;18.37;3.20;;;;;;;;;;5013459;28;20216;-62
2022/01/30 05:51:39;;;;;;;22.77;3.27;;;;;;;;;;5014739;28;20228;-62
2022/01/30 05:54:04;;;;;;;16.27;2.70;;;;;;;;;;5014392;28;20229;-62
2022/01/30 05:56:29;;;;;;;17.20;3.03;;;;;;;;;;5013671;28;20213;-62
2022/01/30 05:58:55;;;;;;;15.00;2.80;;;;;;;;;;5014674;28;20675;-62
2022/01/30 06:01:20;;;;;;;18.53;2.93;;;;;;;;;;4980006;28;20225;-61
2022/01/30 06:03:45;;;;;;;19.20;3.10;;;;;;;;;;4994990;28;20299;-61
2022/01/30 06:06:11;;;;;;;21.33;3.40;;;;;;;;;;4994483;28;20681;-62
2022/01/30 06:08:47;;;;;;;23.40;3.00;;;;;;;;;;4994277;28;20205;-62
2022/01/30 06:11:14;;;;;;;27.00;3.50;;;;;;;;;;4993973;28;20240;-62
2022/01/30 06:13:39;;;;;;;21.50;3.60;;;;;;;;;;4994857;28;20695;-61
2022/01/30 06:16:04;;;;;;;22.63;3.70;;;;;;;;;;4993338;28;20221;-62
2022/01/30 06:18:29;;;;;;;19.87;3.53;;;;;;;;;;4976211;28;20213;-62
2022/01/30 06:20:55;;;;;;;24.23;3.28;;;;;;;;;;4975404;28;20304;-62
2022/01/30 06:23:22;;;;;;;20.23;3.00;;;;;;;;;;4992373;28;20672;-62
2022/01/30 06:25:48;;;;;;;24.00;3.10;;;;;;;;;;5013938;28;20227;-61
2022/01/30 06:28:13;;;;;;;20.30;3.20;;;;;;;;;;4995618;28;20632;-62
2022/01/30 06:30:38;;;;;;;24.53;3.47;;;;;;;;;;5013166;28;20695;-62
2022/01/30 06:33:04;;;;;;;22.30;3.13;;;;;;;;;;5013370;28;20287;-62
2022/01/30 06:35:29;;;;;;;19.88;3.00;;;;;;;;;;5013918;28;20220;-62
2022/01/30 06:37:54;;;;;;;19.37;3.40;;;;;;;;;;5012881;28;20213;-61
2022/01/30 06:40:19;;;;;;;19.73;3.13;;;;;;;;;;5013564;28;20212;-62
2022/01/30 06:42:45;;;;;;;20.30;3.17;;;;;;;;;;5013571;28;20577;-62
2022/01/30 06:45:10;;;;;;;20.47;3.40;;;;;;;;;;5012454;28;20220;-61
2022/01/30 06:47:40;;;;;;;25.60;3.77;;;;;;;;;;5013701;28;20243;-62
2022/01/30 06:50:05;;;;;;;21.27;3.10;;;;;;;;;;5013221;28;20263;-62
2022/01/30 06:52:30;;;;;;;18.10;3.70;;;;;;;;;;5012985;28;20647;-61
2022/01/30 06:54:55;;;;;;;24.47;3.70;;;;;;;;;;5013527;28;20227;-61
2022/01/30 06:57:21;;;;;;;24.97;3.60;;;;;;;;;;5013037;28;20208;-61
2022/01/30 06:59:46;;;;;;;22.10;3.58;;;;;;;;;;5008991;28;20205;-61
2022/01/30 07:02:11;;;;;;;27.43;3.93;;;;;;;;;;4993315;28;20255;-61
2022/01/30 07:04:37;;;;;;;22.30;3.60;;;;;;;;;;4993432;28;20559;-61
2022/01/30 07:07:03;;;;;;;21.53;3.77;;;;;;;;;;4975533;28;20311;-61
2022/01/30 07:09:29;;;;;;;22.97;3.60;;;;;;;;;;4993959;28;20213;-62
2022/01/30 07:11:55;;;;;;;33.70;3.90;;;;;;;;;;4993078;28;20220;-61
2022/01/30 07:14:20;;;;;;;25.03;4.10;;;;;;;;;;4992732;28;20221;-62
2022/01/30 07:16:45;;;;;;;23.57;3.70;;;;;;;;;;4989339;28;20597;-61
2022/01/30 07:19:10;;;;;;;21.17;4.00;;;;;;;;;;4955144;28;20232;-61
2022/01/30 07:21:36;;;;;;;23.87;4.50;;;;;;;;;;4974063;28;20605;-61
2022/01/30 07:24:01;;;;;;;24.37;3.87;;;;;;;;;;5003303;28;20319;-62
2022/01/30 07:26:26;;;;;;;25.50;3.57;;;;;;;;;;5012149;28;20758;-61
2022/01/30 07:28:52;;;;;;;31.67;4.87;;;;;;;;;;5012047;28;20415;-62
2022/01/30 07:31:17;;;;;;;21.90;4.40;;;;;;;;;;5012441;28;20220;-66
2022/01/30 07:33:42;;;;;;;23.30;4.30;;;;;;;;;;5012190;28;20219;-63
2022/01/30 07:36:07;;;;;;;31.83;4.27;;;;;;;;;;5012538;28;20221;-63
2022/01/30 07:38:34;;;;;;;28.07;3.97;;;;;;;;;;4994518;28;20212;-62
2022/01/30 07:40:59;;;;;;;27.05;5.22;;;;;;;;;;5011822;28;20295;-62
2022/01/30 07:43:25;;;;;;;26.77;6.63;;;;;;;;;;5012001;28;20312;-61
2022/01/30 07:45:50;;;;;;;28.25;4.90;;;;;;;;;;4963869;28;20213;-62
2022/01/30 07:48:15;;;;;;;26.23;4.60;;;;;;;;;;4977387;28;20646;-63
2022/01/30 07:50:41;;;;;;;23.53;5.13;;;;;;;;;;4982078;28;20337;-62
2022/01/30 07:53:06;;;;;;;29.50;4.60;;;;;;;;;;4983859;28;20213;-61
2022/01/30 07:55:31;;;;;;;30.67;5.10;;;;;;;;;;4974954;28;20248;-62
2022/01/30 07:57:56;;;;;;;31.10;5.53;;;;;;;;;;4993224;28;20599;-61
2022/01/30 08:00:22;;;;;;;27.03;5.07;;;;;;;;;;4983795;28;20221;-60
2022/01/30 08:02:48;;;;;;;23.03;4.77;;;;;;;;;;4972913;28;20222;-60
2022/01/30 08:05:13;;;;;;;28.65;4.43;;;;;;;;;;4972979;28;20226;-61
2022/01/30 08:07:38;;;;;;;31.00;4.40;;;;;;;;;;4973228;28;20576;-61
2022/01/30 08:10:04;;;;;;;25.97;4.23;;;;;;;;;;4972052;28;20214;-61
2022/01/30 08:12:29;;;;;;;27.27;5.13;;;;;;;;;;4956130;28;20210;-61
2022/01/30 08:14:54;;;;;;;28.23;4.53;;;;;;;;;;4973263;28;20308;-62
2022/01/30 08:17:23;;;;;;;22.95;4.30;;;;;;;;;;4981371;28;20597;-62
2022/01/30 08:19:48;;;;;;;28.53;4.50;;;;;;;;;;4992545;28;20655;-61
2022/01/30 08:22:14;;;;;;;27.47;4.37;;;;;;;;;;4974942;28;20232;-61
2022/01/30 08:24:39;;;;;;;30.83;4.97;;;;;;;;;;5011845;28;20227;-61
2022/01/30 08:27:05;;;;;;;26.83;4.23;;;;;;;;;;5011681;28;20310;-62
2022/01/30 08:29:30;;;;;;;28.63;4.60;;;;;;;;;;4993823;28;20219;-62
2022/01/30 08:31:56;;;;;;;25.27;4.27;;;;;;;;;;5012270;28;20243;-62
2022/01/30 08:34:21;;;;;;;27.30;4.60;;;;;;;;;;4994310;28;20244;-76
2022/01/30 08:36:47;;;;;;;20.85;4.30;;;;;;;;;;5011641;28;20240;-76
2022/01/30 08:39:12;;;;;;;27.33;4.13;;;;;;;;;;4994041;28;20213;-62
2022/01/30 08:41:37;;;;;;;24.90;4.80;;;;;;;;;;5012124;28;20213;-64
2022/01/30 08:44:02;;;;;;;24.87;4.70;;;;;;;;;;4993353;28;20212;-63
2022/01/30 08:46:28;;;;;;;26.13;4.30;;;;;;;;;;5011897;28;20224;-63
2022/01/30 08:48:53;;;;;;;30.48;5.35;;;;;;;;;;5012577;28;20355;-63
2022/01/30 08:51:20;;;;;;;30.93;4.80;;;;;;;;;;5014552;28;20217;-63
2022/01/30 08:53:45;;;;;;;23.13;4.00;;;;;;;;;;5015684;28;20575;-63
2022/01/30 08:56:11;;;;;;;23.33;4.65;;;;;;;;;;5015143;28;20220;-63
2022/01/30 08:58:36;;;;;;;31.23;6.07;;;;;;;;;;5014766;28;20266;-63
2022/01/30 09:01:01;;;;;;;45.47;13.73;;;;;;;;;;5001199;28;20220;-64
2022/01/30 09:03:27;;;;;;;24.10;6.13;;;;;;;;;;4978636;28;20252;-62
2022/01/30 09:05:52;;;;;;;28.48;6.25;;;;;;;;;;4977514;28;20268;-63
2022/01/30 09:08:17;;;;;;;28.77;5.50;;;;;;;;;;4995180;28;20236;-62
2022/01/30 09:10:42;;;;;;;30.30;4.80;;;;;;;;;;4978167;28;20271;-65
2022/01/30 09:13:08;;;;;;;31.73;6.10;;;;;;;;;;4994578;28;20216;-62
2022/01/30 09:15:41;;;;;;;26.63;4.80;;;;;;;;;;4995556;28;20217;-63
2022/01/30 09:18:09;;;;;;;33.97;5.57;;;;;;;;;;4980022;28;20222;-61
2022/01/30 09:20:35;;;;;;;29.20;6.18;;;;;;;;;;4975688;28;20221;-61
2022/01/30 09:23:00;;;;;;;33.33;6.00;;;;;;;;;;4989130;28;20208;-61
2022/01/30 09:25:27;;;;;;;30.50;4.50;;;;;;;;;;4980302;28;20309;-60
2022/01/30 09:27:52;;;;;;;24.45;4.97;;;;;;;;;;4997909;28;20711;-60
2022/01/30 09:30:18;;;;;;;33.55;5.82;;;;;;;;;;5014203;28;20220;-59
2022/01/30 09:32:43;;;;;;;32.75;5.35;;;;;;;;;;5014098;28;21033;-60
2022/01/30 09:35:08;;;;;;;21.88;5.15;;;;;;;;;;5014328;28;20216;-60
2022/01/30 09:37:34;;;;;;;32.58;5.10;;;;;;;;;;5015120;28;20213;-59
2022/01/30 09:39:59;;;;;;;30.63;5.20;;;;;;;;;;5013742;28;20676;-59
2022/01/30 09:42:24;;;;;;;29.83;5.07;;;;;;;;;;5014541;28;20223;-59
2022/01/30 09:44:50;;;;;;;37.38;5.78;;;;;;;;;;5014504;28;20270;-59
2022/01/30 09:47:16;;;;;;;27.23;5.03;;;;;;;;;;5013200;28;20247;-60
2022/01/30 09:49:44;;;;;;;29.85;5.22;;;;;;;;;;5014599;28;20216;-59
2022/01/30 09:52:09;;;;;;;28.02;5.55;;;;;;;;;;5014353;28;20247;-58
2022/01/30 09:54:35;;;;;;;31.05;5.88;;;;;;;;;;5013493;28;20240;-59
2022/01/30 09:57:00;;;;;;;32.70;5.72;;;;;;;;;;5014587;28;20216;-59
2022/01/30 09:59:25;;;;;;;25.45;4.90;;;;;;;;;;5013402;28;20219;-59
2022/01/30 10:01:50;;;;;;;29.98;5.28;;;;;;;;;;4986256;28;20221;-59
2022/01/30 10:04:16;;;;;;;31.67;6.00;;;;;;;;;;4981872;28;20210;-59
2022/01/30 10:06:52;;;;;;;33.85;5.00;;;;;;;;;;4957905;28;20222;-58
2022/01/30 10:09:23;;;;;;;30.05;5.70;;;;;;;;;;4956697;28;20312;-58
2022/01/30 10:12:00;;;;;;;32.08;4.80;;;;;;;;;;4975326;28;20283;-59
2022/01/30 10:14:25;;;;;;;23.52;3.65;;;;;;;;;;4975027;28;20217;-58
2022/01/30 10:16:51;;;;;;;29.83;5.03;;;;;;;;;;4978836;28;20217;-59
2022/01/30 10:19:19;;;;;;;34.03;5.88;;;;;;;;;;4994128;28;20216;-59
2022/01/30 10:21:45;;;;;;;31.23;5.28;;;;;;;;;;4993582;28;20256;-59
2022/01/30 10:24:21;;;;;;;28.75;5.13;;;;;;;;;;5009810;28;20310;-60
2022/01/30 10:26:46;;;;;;;30.55;5.10;;;;;;;;;;5014161;28;20235;-58
2022/01/30 10:29:18;;;;;;;27.67;5.05;;;;;;;;;;5012694;28;20208;-59
2022/01/30 10:32:01;;;;;;;30.23;5.38;;;;;;;;;;5013570;28;20208;-59
2022/01/30 10:34:27;;;;;;;29.20;5.15;;;;;;;;;;5013396;28;20216;-59
2022/01/30 10:37:11;;;;;;;33.15;5.75;;;;;;;;;;5013159;28;20215;-59
2022/01/30 10:39:56;;;;;;;29.02;5.57;;;;;;;;;;5013171;28;20209;-60
2022/01/30 10:42:30;;;;;;;28.90;5.25;;;;;;;;;;5013136;28;20664;-60
2022/01/30 10:44:56;;;;;;;37.13;5.65;;;;;;;;;;4995307;28;20738;-64
2022/01/30 10:47:21;;;;;;;30.90;5.43;;;;;;;;;;5013053;28;20351;-64
2022/01/30 10:49:47;;;;;;;27.60;5.22;;;;;;;;;;5012915;28;20315;-64
2022/01/30 10:52:12;;;;;;;29.50;5.30;;;;;;;;;;5013206;28;20209;-59
2022/01/30 10:54:38;;;;;;;31.38;5.25;;;;;;;;;;5013279;28;20262;-61
2022/01/30 10:57:05;;;;;;;31.02;5.95;;;;;;;;;;4994214;28;20607;-61
2022/01/30 10:59:30;;;;;;;32.63;5.45;;;;;;;;;;5011725;28;20212;-61
2022/01/30 11:01:56;;;;;;;27.35;5.28;;;;;;;;;;4976076;28;20213;-61
2022/01/30 11:04:22;;;;;;;32.55;6.20;;;;;;;;;;4974587;28;20402;-62
2022/01/30 11:06:47;;;;;;;28.20;5.20;;;;;;;;;;4993514;28;20225;-61
2022/01/30 11:09:14;;;;;;;30.33;5.60;;;;;;;;;;4992857;28;20213;-61
2022/01/30 11:11:45;;;;;;;34.85;5.80;;;;;;;;;;4992790;28;20284;-61
2022/01/30 11:19:21;;;;;;;30.25;5.25;;;;;;;;;;4972599;28;20244;-61
2022/01/30 11:21:47;;;;;;;34.08;5.40;;;;;;;;;;4956731;28;20657;-60
2022/01/30 11:24:13;;;;;;;27.73;4.90;;;;;;;;;;5005962;28;20335;-61
2022/01/30 11:26:39;;;;;;;29.50;5.47;;;;;;;;;;5012122;28;20327;-60
2022/01/30 11:29:07;;;;;;;31.75;5.53;;;;;;;;;;5012419;28;20235;-61
2022/01/30 11:31:32;;;;;;;32.40;5.03;;;;;;;;;;5012490;28;20204;-61
2022/01/30 11:33:57;;;;;;;29.05;5.65;;;;;;;;;;4994262;28;20219;-60
2022/01/30 11:36:23;;;;;;;30.60;5.55;;;;;;;;;;5012276;28;20216;-61
2022/01/30 11:38:48;;;;;;;32.28;5.50;;;;;;;;;;4978750;28;20242;-60
2022/01/30 11:41:14;;;;;;;34.70;5.75;;;;;;;;;;4994107;28;20271;-60
2022/01/30 11:43:40;;;;;;;33.92;5.10;;;;;;;;;;5012969;28;20208;-62
2022/01/30 11:46:12;;;;;;;28.95;5.30;;;;;;;;;;5011032;28;20212;-63
2022/01/30 11:48:37;;;;;;;32.67;5.30;;;;;;;;;;5012632;28;20277;-61
2022/01/30 11:51:02;;;;;;;33.30;5.70;;;;;;;;;;4994427;28;20623;-61
2022/01/30 11:53:28;;;;;;;32.83;5.30;;;;;;;;;;5011723;28;20645;-61
2022/01/30 11:55:57;;;;;;;33.17;5.35;;;;;;;;;;4994990;28;20223;-61
2022/01/30 11:58:29;;;;;;;25.27;4.97;;;;;;;;;;5012078;28;20200;-61
2022/01/30 12:00:55;;;;;;;25.60;5.22;;;;;;;;;;4998428;28;20231;-61
2022/01/30 12:03:20;;;;;;;25.10;5.03;;;;;;;;;;4975105;28;20221;-60
2022/01/30 12:05:45;;;;;;;30.42;5.28;;;;;;;;;;4992905;28;20684;-60
2022/01/30 12:08:30;;;;;;;28.42;5.45;;;;;;;;;;4991202;28;20299;-61
2022/01/30 12:10:56;;;;;;;33.83;5.40;;;;;;;;;;4992875;28;20217;-61
2022/01/30 12:13:41;;;;;;;27.48;5.55;;;;;;;;;;4992590;28;20201;-61
2022/01/30 12:16:06;;;;;;;30.05;5.07;;;;;;;;;;4973648;28;20213;-61
2022/01/30 12:18:42;;;;;;;28.48;5.32;;;;;;;;;;4956987;28;20217;-60
2022/01/30 12:21:09;;;;;;;31.50;5.40;;;;;;;;;;4972265;28;20217;-61
2022/01/30 12:23:36;;;;;;;31.65;5.47;;;;;;;;;;4995532;28;21049;-61
2022/01/30 12:26:03;;;;;;;27.75;4.68;;;;;;;;;;5016004;28;20216;-61
2022/01/30 12:28:39;;;;;;;32.03;5.05;;;;;;;;;;5015160;28;20901;-60
2022/01/30 12:31:13;;;;;;;31.65;6.25;;;;;;;;;;5015539;28;20219;-60
2022/01/30 12:33:39;;;;;;;33.40;7.43;;;;;;;;;;4998510;28;20250;-61
2022/01/30 12:36:11;;;;;;;33.38;7.07;;;;;;;;;;5014795;28;20232;-60
2022/01/30 12:38:36;;;;;;;27.05;5.18;;;;;;;;;;5015784;28;20679;-61
2022/01/30 12:41:17;;;;;;;31.77;6.05;;;;;;;;;;5015731;28;20208;-61
2022/01/30 12:43:42;;;;;;;26.65;5.13;;;;;;;;;;5015195;28;20215;-60
2022/01/30 12:46:07;;;;;;;30.13;5.20;;;;;;;;;;5015191;28;20216;-60
2022/01/30 12:48:33;;;;;;;28.98;5.53;;;;;;;;;;5015869;28;20304;-60
2022/01/30 12:51:03;;;;;;;29.40;4.97;;;;;;;;;;5015122;28;20212;-60
2022/01/30 12:53:29;;;;;;;32.30;5.32;;;;;;;;;;4998584;28;20220;-60
2022/01/30 12:55:55;;;;;;;27.05;5.22;;;;;;;;;;5015783;28;20236;-60
2022/01/30 12:58:20;;;;;;;28.33;5.60;;;;;;;;;;5014131;28;20244;-60
2022/01/30 13:00:45;;;;;;;28.50;5.38;;;;;;;;;;4986611;28;20300;-61
2022/01/30 13:03:18;;;;;;;26.83;4.78;;;;;;;;;;4995394;28;20213;-60
2022/01/30 13:05:44;;;;;;;29.58;5.43;;;;;;;;;;4978344;28;20287;-60
2022/01/30 13:08:09;;;;;;;30.73;5.60;;;;;;;;;;4994758;28;20320;-60
2022/01/30 13:10:34;;;;;;;30.88;5.70;;;;;;;;;;4995057;28;20209;-60
2022/01/30 13:13:00;;;;;;;30.92;5.53;;;;;;;;;;4995874;28;20681;-60
2022/01/30 13:15:27;;;;;;;33.92;5.05;;;;;;;;;;4995652;28;20264;-60
2022/01/30 13:17:52;;;;;;;27.20;5.38;;;;;;;;;;4981249;28;20237;-60
2022/01/30 13:20:24;;;;;;;31.33;5.10;;;;;;;;;;4975862;28;20209;-60
2022/01/30 13:22:49;;;;;;;26.33;5.15;;;;;;;;;;4986328;28;20208;-60
2022/01/30 13:25:15;;;;;;;26.35;4.82;;;;;;;;;;5013661;28;20227;-60
2022/01/30 13:27:41;;;;;;;32.60;5.85;;;;;;;;;;5014921;28;20216;-60
2022/01/30 13:30:07;;;;;;;26.10;4.97;;;;;;;;;;4997267;28;20216;-61
2022/01/30 13:32:32;;;;;;;28.90;5.32;;;;;;;;;;5013960;28;20213;-60
2022/01/30 13:34:58;;;;;;;26.08;4.75;;;;;;;;;;5014758;28;20698;-60
2022/01/30 13:37:24;;;;;;;29.90;5.70;;;;;;;;;;5013482;28;20208;-61
2022/01/30 13:40:03;;;;;;;26.45;5.25;;;;;;;;;;4996550;28;20549;-60
2022/01/30 13:47:52;;;;;;;28.40;5.40;;;;;;;;;;5013485;28;20259;-60
2022/01/30 13:50:18;;;;;;;24.73;4.75;;;;;;;;;;5014392;28;20262;-63
2022/01/30 13:52:43;;;;;;;24.15;4.93;;;;;;;;;;5013684;28;20610;-60
2022/01/30 13:55:08;;;;;;;20.95;4.53;;;;;;;;;;4996538;28;20213;-60
2022/01/30 13:57:35;;;;;;;26.13;4.72;;;;;;;;;;4985088;28;20217;-60
2022/01/30 14:00:03;;;;;;;26.80;4.72;;;;;;;;;;4998645;28;20577;-60
2022/01/30 14:02:28;;;;;;;25.67;4.60;;;;;;;;;;4994192;28;20313;-60
2022/01/30 14:04:53;;;;;;;24.88;4.25;;;;;;;;;;5006580;28;20675;-61
2022/01/30 14:07:20;;;;;;;24.77;4.63;;;;;;;;;;5012818;28;20228;-61
2022/01/30 14:09:49;;;;;;;28.40;5.30;;;;;;;;;;5013930;28;20216;-61
2022/01/30 14:12:15;;;;;;;24.88;4.45;;;;;;;;;;5013725;28;20215;-61
2022/01/30 14:14:40;;;;;;;21.52;5.13;;;;;;;;;;5012551;28;20270;-61
2022/01/30 14:17:07;;;;;;;24.10;4.35;;;;;;;;;;5006045;28;20221;-61
2022/01/30 14:19:40;;;;;;;23.20;4.13;;;;;;;;;;4994588;28;20206;-61
2022/01/30 14:22:14;;;;;;;24.23;4.93;;;;;;;;;;4993058;28;20221;-61
2022/01/30 14:24:47;;;;;;;27.02;5.10;;;;;;;;;;4957326;28;20225;-61
2022/01/30 14:27:12;;;;;;;28.30;5.32;;;;;;;;;;4991175;28;20450;-61
2022/01/30 14:29:38;;;;;;;25.10;4.85;;;;;;;;;;4995391;28;20579;-60
2022/01/30 14:32:08;;;;;;;28.08;4.95;;;;;;;;;;5013675;28;20555;-61
2022/01/30 14:34:33;;;;;;;32.75;5.10;;;;;;;;;;4998508;28;20205;-60
2022/01/30 14:36:59;;;;;;;29.80;5.38;;;;;;;;;;4993389;28;20213;-60
2022/01/30 14:39:29;;;;;;;32.15;5.13;;;;;;;;;;4975917;28;20213;-61
2022/01/30 14:41:55;;;;;;;29.55;5.38;;;;;;;;;;4993752;28;20279;-61
2022/01/30 14:44:20;;;;;;;28.05;5.18;;;;;;;;;;4993373;28;20656;-62
2022/01/30 14:46:46;;;;;;;34.15;5.38;;;;;;;;;;4993540;28;20236;-62
2022/01/30 14:49:11;;;;;;;28.60;5.43;;;;;;;;;;4975516;28;20215;-61
2022/01/30 14:51:37;;;;;;;32.65;5.88;;;;;;;;;;4994060;28;20664;-62
2022/01/30 14:54:02;;;;;;;29.58;5.82;;;;;;;;;;4993076;28;20233;-62
2022/01/30 14:56:28;;;;;;;32.45;5.13;;;;;;;;;;4992768;28;20212;-62
2022/01/30 14:58:54;;;;;;;31.33;5.10;;;;;;;;;;4987152;28;20213;-62
2022/01/30 15:01:19;;;;;;;30.73;4.90;;;;;;;;;;4986426;28;20217;-62
2022/01/30 15:03:45;;;;;;;31.27;5.20;;;;;;;;;;4993118;28;20213;-62
2022/01/30 15:06:10;;;;;;;28.52;5.15;;;;;;;;;;4993429;28;20220;-62
2022/01/30 15:08:35;;;;;;;29.52;4.88;;;;;;;;;;4993048;28;20228;-62
2022/01/30 15:11:01;;;;;;;29.85;4.70;;;;;;;;;;4992553;28;20216;-62
2022/01/30 15:13:26;;;;;;;33.08;5.05;;;;;;;;;;4993080;28;20223;-62
2022/01/30 15:15:52;;;;;;;31.35;5.60;;;;;;;;;;4993364;28;20219;-62